Time;durP1;ratioP1;P1;durP2;ratioP2;P2;SDS_P1;SDS_P2;PMS_P1;PMS_P2;Temp;Humidity;BMP_temperature;BMP_pressure;BME280_temperature;BME280_humidity;BME280_pressure;Samples;Min_cycle;Max_cycle;Signal;HPM_P1;HPM_P2
2023/05/31 00:02:26;;;;;;;5.93;4.03;;;14.50;99.90;;;;;;5125132;28;20449;-80
2023/05/31 00:04:53;;;;;;;5.63;3.13;;;14.50;99.90;;;;;;5126476;28;20438;-80
2023/05/31 00:07:20;;;;;;;5.93;3.77;;;14.50;99.90;;;;;;5126617;28;20451;-80
2023/05/31 00:09:47;;;;;;;6.77;4.53;;;14.50;99.90;;;;;;5126408;28;20497;-80
2023/05/31 00:12:14;;;;;;;6.30;4.00;;;14.40;99.90;;;;;;5126506;28;20438;-80
2023/05/31 00:14:41;;;;;;;6.13;4.40;;;14.40;99.90;;;;;;5130161;28;20447;-80
2023/05/31 00:17:08;;;;;;;4.60;3.80;;;14.40;99.90;;;;;;5129830;28;20435;-80
2023/05/31 00:19:36;;;;;;;5.20;3.57;;;14.40;99.90;;;;;;5128392;28;20432;-80
2023/05/31 00:22:04;;;;;;;5.00;4.00;;;14.50;99.90;;;;;;5130373;28;20490;-80
2023/05/31 00:24:30;;;;;;;8.80;4.50;;;14.50;99.90;;;;;;5131175;28;20486;-80
2023/05/31 00:26:57;;;;;;;5.10;4.10;;;14.40;99.90;;;;;;5119449;28;20443;-82
2023/05/31 00:29:25;;;;;;;6.10;3.83;;;14.30;99.90;;;;;;5113350;28;20487;-82
2023/05/31 00:31:52;;;;;;;5.93;4.10;;;13.80;99.90;;;;;;5113546;28;20832;-81
2023/05/31 00:34:19;;;;;;;6.40;4.23;;;13.80;99.90;;;;;;5112177;28;20865;-82
2023/05/31 00:36:47;;;;;;;4.60;3.63;;;14.00;99.90;;;;;;5112842;28;20443;-82
2023/05/31 00:39:14;;;;;;;4.70;3.63;;;14.00;99.90;;;;;;5113038;28;20447;-81
2023/05/31 00:41:41;;;;;;;5.43;3.80;;;13.70;99.90;;;;;;5112641;28;20491;-82
2023/05/31 00:44:08;;;;;;;4.37;3.63;;;13.60;99.90;;;;;;5112456;28;20479;-82
2023/05/31 00:46:37;;;;;;;4.30;3.30;;;13.60;99.90;;;;;;5112190;28;20535;-82
2023/05/31 00:49:05;;;;;;;5.40;3.43;;;13.70;99.90;;;;;;5112386;28;20937;-82
2023/05/31 00:51:32;;;;;;;5.80;4.30;;;13.80;99.90;;;;;;5112255;28;20559;-83
2023/05/31 00:54:02;;;;;;;5.90;3.67;;;14.00;99.90;;;;;;5112152;28;20486;-82
2023/05/31 00:56:29;;;;;;;6.47;4.00;;;14.10;99.90;;;;;;5112621;28;20875;-82
2023/05/31 00:58:58;;;;;;;4.47;3.73;;;14.00;99.90;;;;;;5112993;28;20523;-82
2023/05/31 01:01:27;;;;;;;6.03;3.93;;;13.80;99.90;;;;;;5112219;28;20543;-82
2023/05/31 01:03:55;;;;;;;5.70;3.90;;;13.60;99.90;;;;;;5111920;28;20948;-81
2023/05/31 01:06:23;;;;;;;8.03;3.87;;;13.40;99.90;;;;;;5111314;28;20451;-82
2023/05/31 01:08:50;;;;;;;7.40;4.03;;;13.40;99.90;;;;;;5112093;28;20450;-82
2023/05/31 01:11:27;;;;;;;5.50;3.90;;;13.40;99.90;;;;;;5112333;28;20527;-82
2023/05/31 01:14:02;;;;;;;6.70;4.50;;;13.40;99.90;;;;;;5111823;28;20532;-82
2023/05/31 01:16:35;;;;;;;7.53;4.30;;;13.60;99.90;;;;;;5111817;28;20521;-82
2023/05/31 01:19:07;;;;;;;4.70;3.27;;;13.60;99.90;;;;;;5112085;28;20500;-83
2023/05/31 01:21:44;;;;;;;8.00;4.10;;;13.60;99.90;;;;;;5110033;28;20547;-84
2023/05/31 01:24:23;;;;;;;5.77;3.77;;;13.70;99.90;;;;;;5112333;28;20525;-82
2023/05/31 01:26:55;;;;;;;5.63;4.33;;;13.70;99.90;;;;;;5114112;28;20463;-82
2023/05/31 01:29:25;;;;;;;7.10;4.37;;;13.80;99.90;;;;;;5115921;28;20449;-82
2023/05/31 01:31:53;;;;;;;7.43;4.10;;;13.80;99.90;;;;;;5115841;28;20443;-82
2023/05/31 01:34:20;;;;;;;6.37;4.30;;;14.00;99.90;;;;;;5115772;28;20478;-82
2023/05/31 01:36:47;;;;;;;4.10;3.40;;;13.90;99.90;;;;;;5115961;28;20538;-82
2023/05/31 01:39:15;;;;;;;5.67;3.97;;;13.90;99.90;;;;;;5116705;28;20442;-82
2023/05/31 01:41:44;;;;;;;6.10;3.97;;;13.90;99.90;;;;;;5128649;28;20475;-82
2023/05/31 01:44:18;;;;;;;5.80;3.83;;;13.90;99.90;;;;;;5115445;28;20538;-82
2023/05/31 01:46:46;;;;;;;5.70;4.43;;;13.90;99.90;;;;;;5115065;28;20518;-82
2023/05/31 01:49:14;;;;;;;6.30;3.97;;;14.00;99.90;;;;;;5115516;28;20535;-82
2023/05/31 01:51:43;;;;;;;6.20;3.97;;;13.90;99.90;;;;;;5114909;28;20896;-82
2023/05/31 01:54:10;;;;;;;5.37;4.10;;;13.60;99.90;;;;;;5115099;28;20448;-82
2023/05/31 01:56:38;;;;;;;5.30;4.40;;;13.40;99.90;;;;;;5114815;28;20533;-81
2023/05/31 01:59:07;;;;;;;6.60;3.67;;;13.50;99.90;;;;;;5115351;28;20525;-82
2023/05/31 02:01:36;;;;;;;5.53;4.10;;;13.60;99.90;;;;;;5115126;28;20455;-82
2023/05/31 02:04:03;;;;;;;4.93;3.70;;;13.60;99.90;;;;;;5114757;28;20470;-82
2023/05/31 02:06:31;;;;;;;6.00;3.77;;;13.70;99.90;;;;;;5114678;28;20549;-82
2023/05/31 02:08:58;;;;;;;5.13;3.80;;;13.70;99.90;;;;;;5115390;28;20444;-81
2023/05/31 02:11:26;;;;;;;7.60;4.37;;;13.70;99.90;;;;;;5115084;28;20490;-82
2023/05/31 02:13:53;;;;;;;4.70;3.60;;;13.40;99.90;;;;;;5114764;28;20453;-82
2023/05/31 02:16:20;;;;;;;7.57;3.50;;;13.40;99.90;;;;;;5114259;28;20529;-81
2023/05/31 02:18:51;;;;;;;4.70;3.40;;;13.40;99.90;;;;;;5114871;28;20463;-82
2023/05/31 02:21:18;;;;;;;5.10;4.00;;;13.40;99.90;;;;;;5113114;28;20499;-81
2023/05/31 02:23:45;;;;;;;4.93;4.00;;;13.30;99.90;;;;;;5114419;28;20511;-82
2023/05/31 02:26:12;;;;;;;7.53;3.90;;;13.40;99.90;;;;;;5112846;28;20443;-82
2023/05/31 02:28:40;;;;;;;5.10;4.07;;;13.40;99.90;;;;;;5114577;28;20444;-82
2023/05/31 02:31:06;;;;;;;4.67;3.70;;;13.40;99.90;;;;;;5114511;28;20481;-82
2023/05/31 02:33:34;;;;;;;5.37;4.00;;;13.60;99.90;;;;;;5114119;28;20534;-82
2023/05/31 02:36:02;;;;;;;4.53;3.87;;;13.60;99.90;;;;;;5114165;28;20458;-82
2023/05/31 02:38:29;;;;;;;5.90;3.60;;;13.60;99.90;;;;;;5114406;28;20440;-82
2023/05/31 02:40:56;;;;;;;4.40;3.77;;;13.60;99.90;;;;;;5114924;28;20491;-81
2023/05/31 02:43:23;;;;;;;4.20;3.20;;;13.50;99.90;;;;;;5114306;28;20479;-81
2023/05/31 02:45:50;;;;;;;4.50;3.77;;;13.30;99.90;;;;;;5113963;28;20566;-81
2023/05/31 02:48:17;;;;;;;4.73;3.30;;;13.30;99.90;;;;;;5114635;28;20443;-81
2023/05/31 02:50:44;;;;;;;5.33;4.07;;;13.00;99.90;;;;;;5114289;28;20954;-82
2023/05/31 02:53:12;;;;;;;4.97;4.10;;;12.90;99.90;;;;;;5113932;28;20523;-82
2023/05/31 02:55:40;;;;;;;5.67;4.20;;;12.80;99.90;;;;;;5115211;28;20510;-82
2023/05/31 02:58:07;;;;;;;6.37;4.07;;;12.80;99.90;;;;;;5113950;28;20480;-82
2023/05/31 03:00:34;;;;;;;5.93;4.33;;;12.80;99.90;;;;;;5114103;28;20538;-81
2023/05/31 03:03:01;;;;;;;6.10;4.30;;;12.90;99.90;;;;;;5113627;28;20446;-82
2023/05/31 03:05:29;;;;;;;5.70;4.00;;;13.00;99.90;;;;;;5114084;28;20470;-82
2023/05/31 03:07:56;;;;;;;4.43;3.67;;;13.10;99.90;;;;;;5113763;28;20429;-82
2023/05/31 03:10:25;;;;;;;5.90;3.97;;;13.10;99.90;;;;;;5113856;28;20471;-82
2023/05/31 03:12:52;;;;;;;5.47;4.13;;;13.10;99.90;;;;;;5113611;28;20909;-81
2023/05/31 03:15:18;;;;;;;5.00;4.00;;;13.10;99.90;;;;;;5113566;28;20550;-82
2023/05/31 03:17:45;;;;;;;5.93;3.57;;;13.10;99.90;;;;;;5102695;28;20513;-82
2023/05/31 03:20:12;;;;;;;5.37;3.70;;;13.20;99.90;;;;;;5111547;28;20462;-82
2023/05/31 03:22:40;;;;;;;7.37;4.13;;;13.30;99.90;;;;;;5105913;28;20501;-81
2023/05/31 03:25:07;;;;;;;6.37;4.63;;;13.30;99.90;;;;;;5105184;28;20443;-82
2023/05/31 03:27:35;;;;;;;7.20;4.20;;;13.20;99.90;;;;;;5108055;28;20471;-82
2023/05/31 03:30:02;;;;;;;4.33;3.70;;;13.30;99.90;;;;;;5106725;28;20483;-83
2023/05/31 03:32:29;;;;;;;5.73;4.00;;;13.40;99.90;;;;;;5115062;28;20525;-82
2023/05/31 03:34:56;;;;;;;4.60;3.60;;;13.40;99.90;;;;;;5111959;28;20439;-82
2023/05/31 03:37:23;;;;;;;5.57;4.13;;;13.50;99.90;;;;;;5094518;28;20492;-82
2023/05/31 03:39:50;;;;;;;5.20;4.37;;;13.50;99.90;;;;;;5094814;28;20469;-82
2023/05/31 03:42:17;;;;;;;6.33;4.10;;;13.60;99.90;;;;;;5093912;28;20485;-82
2023/05/31 03:44:45;;;;;;;5.00;3.77;;;13.60;99.90;;;;;;5094385;28;20443;-82
2023/05/31 03:47:12;;;;;;;5.50;4.00;;;13.50;99.90;;;;;;5093619;28;20469;-82
2023/05/31 03:49:40;;;;;;;7.57;3.90;;;13.50;99.90;;;;;;5095084;28;20871;-81
2023/05/31 03:52:08;;;;;;;4.83;4.07;;;13.50;99.90;;;;;;5094839;28;20496;-82
2023/05/31 03:54:36;;;;;;;6.20;4.03;;;13.60;99.90;;;;;;5095732;28;20434;-82
2023/05/31 03:57:04;;;;;;;5.73;5.13;;;13.50;99.90;;;;;;5094206;28;20446;-82
2023/05/31 03:59:31;;;;;;;4.97;3.50;;;13.50;99.90;;;;;;5094446;28;20450;-82
2023/05/31 04:01:59;;;;;;;4.37;3.70;;;13.50;99.90;;;;;;5094290;28;20499;-81
2023/05/31 04:04:26;;;;;;;4.50;4.07;;;13.40;99.90;;;;;;5094025;28;20448;-82
2023/05/31 04:06:53;;;;;;;5.83;4.00;;;13.30;99.90;;;;;;5094042;28;20479;-81
2023/05/31 04:09:20;;;;;;;5.73;3.80;;;13.30;99.90;;;;;;5093949;28;20904;-82
2023/05/31 04:11:47;;;;;;;6.90;3.57;;;13.30;99.90;;;;;;5093736;28;20529;-82
2023/05/31 04:14:14;;;;;;;8.03;4.40;;;13.20;99.90;;;;;;5093336;28;20478;-82
2023/05/31 04:16:41;;;;;;;8.00;4.27;;;13.20;99.90;;;;;;5094083;28;20444;-82
2023/05/31 04:19:10;;;;;;;6.30;5.03;;;13.30;99.90;;;;;;5093759;28;20432;-82
2023/05/31 04:21:37;;;;;;;5.07;4.00;;;13.20;99.90;;;;;;5091796;28;20450;-81
2023/05/31 04:24:04;;;;;;;6.37;4.27;;;13.20;99.90;;;;;;5093009;28;20524;-81
2023/05/31 04:26:32;;;;;;;6.40;4.47;;;13.20;99.90;;;;;;5091653;28;20455;-81
2023/05/31 04:28:59;;;;;;;6.13;3.70;;;13.30;99.90;;;;;;5108137;28;20448;-81
2023/05/31 04:31:28;;;;;;;4.87;3.57;;;13.20;99.90;;;;;;5113129;28;20995;-81
2023/05/31 04:33:56;;;;;;;6.20;4.50;;;13.00;99.90;;;;;;5112953;28;20503;-81
2023/05/31 04:36:25;;;;;;;4.80;4.00;;;12.90;99.90;;;;;;5113232;28;20443;-81
2023/05/31 04:38:55;;;;;;;6.80;4.93;;;12.80;99.90;;;;;;5113776;28;20475;-82
2023/05/31 04:41:26;;;;;;;6.33;4.00;;;12.80;99.90;;;;;;5114634;28;20526;-82
2023/05/31 04:43:53;;;;;;;5.90;4.40;;;13.00;99.90;;;;;;5113463;28;20448;-82
2023/05/31 04:46:21;;;;;;;5.07;3.87;;;13.10;99.90;;;;;;5112873;28;20443;-82
2023/05/31 04:48:49;;;;;;;7.20;5.40;;;13.20;99.90;;;;;;5112639;28;21149;-81
2023/05/31 04:51:17;;;;;;;5.53;4.07;;;13.30;99.90;;;;;;5112089;28;20956;-82
2023/05/31 04:53:45;;;;;;;6.90;4.07;;;13.30;99.90;;;;;;5112209;28;20446;-82
2023/05/31 04:56:12;;;;;;;5.83;4.30;;;13.20;99.90;;;;;;5112060;28;20885;-81
2023/05/31 04:58:39;;;;;;;5.90;4.20;;;13.20;99.90;;;;;;5111545;28;20474;-83
2023/05/31 05:01:07;;;;;;;6.00;4.10;;;13.20;99.90;;;;;;5111822;28;20534;-84
2023/05/31 05:03:34;;;;;;;4.83;4.33;;;13.30;99.90;;;;;;5111234;28;20434;-85
2023/05/31 05:06:12;;;;;;;5.40;4.03;;;13.30;99.90;;;;;;5113037;28;20529;-81
2023/05/31 05:08:39;;;;;;;7.20;4.10;;;13.30;99.90;;;;;;5112296;28;20533;-81
2023/05/31 05:11:07;;;;;;;6.40;4.30;;;13.40;99.90;;;;;;5110679;28;20490;-81
2023/05/31 05:13:34;;;;;;;6.73;4.07;;;13.40;99.90;;;;;;5110590;28;20439;-82
2023/05/31 05:16:02;;;;;;;6.20;3.77;;;13.40;99.90;;;;;;5109753;28;20967;-82
2023/05/31 05:18:29;;;;;;;6.37;4.03;;;13.40;99.90;;;;;;5111205;28;20854;-82
2023/05/31 05:20:56;;;;;;;5.07;4.30;;;13.40;99.90;;;;;;5110550;28;20543;-81
2023/05/31 05:23:23;;;;;;;7.27;3.80;;;13.50;99.90;;;;;;5112486;28;20439;-81
2023/05/31 05:25:50;;;;;;;4.90;3.90;;;13.50;99.90;;;;;;5122767;28;20806;-82
2023/05/31 05:28:18;;;;;;;4.77;4.27;;;13.60;99.90;;;;;;5111500;28;21023;-83
2023/05/31 05:30:45;;;;;;;6.37;4.00;;;13.60;99.90;;;;;;5110870;28;20542;-81
2023/05/31 05:33:12;;;;;;;4.37;3.80;;;13.60;99.90;;;;;;5109550;28;20451;-81
2023/05/31 05:35:39;;;;;;;5.33;3.93;;;13.60;99.90;;;;;;5110499;28;20559;-81
2023/05/31 05:38:06;;;;;;;4.03;3.43;;;13.50;99.90;;;;;;5110536;28;20547;-84
2023/05/31 05:40:33;;;;;;;5.90;4.20;;;13.50;99.90;;;;;;5111087;28;20543;-85
2023/05/31 05:43:00;;;;;;;6.00;4.30;;;13.50;99.90;;;;;;5110782;28;20486;-81
2023/05/31 05:45:28;;;;;;;5.47;4.37;;;13.50;99.90;;;;;;5111109;28;20466;-81
2023/05/31 05:47:55;;;;;;;6.30;4.40;;;13.60;99.90;;;;;;5110643;28;20528;-80
2023/05/31 05:50:22;;;;;;;5.07;3.83;;;13.70;99.90;;;;;;5111063;28;20913;-81
2023/05/31 05:52:50;;;;;;;5.50;3.57;;;13.60;99.90;;;;;;5110633;28;20558;-84
2023/05/31 05:55:17;;;;;;;7.43;5.13;;;13.50;99.90;;;;;;5111530;28;20912;-82
2023/05/31 05:57:43;;;;;;;5.93;4.03;;;13.30;99.90;;;;;;5110539;28;21012;-82
2023/05/31 06:00:11;;;;;;;5.50;4.03;;;13.20;99.90;;;;;;5111523;28;21046;-82
2023/05/31 06:02:40;;;;;;;5.70;3.90;;;13.30;99.90;;;;;;5111041;28;20443;-82
2023/05/31 06:05:08;;;;;;;5.53;4.03;;;13.50;99.90;;;;;;5110078;28;20450;-83
2023/05/31 06:07:35;;;;;;;5.73;4.03;;;13.70;99.90;;;;;;5111756;28;20475;-83
2023/05/31 06:10:03;;;;;;;5.20;4.70;;;14.00;99.90;;;;;;5111855;28;20438;-82
2023/05/31 06:12:30;;;;;;;5.67;4.20;;;14.30;99.90;;;;;;5114623;28;20478;-82
2023/05/31 06:14:57;;;;;;;5.03;4.53;;;14.50;99.90;;;;;;5114949;28;20446;-82
2023/05/31 06:17:24;;;;;;;5.07;4.30;;;14.40;99.90;;;;;;5115095;28;20785;-83
2023/05/31 06:19:52;;;;;;;6.40;5.27;;;14.40;99.90;;;;;;5113394;28;20931;-82
2023/05/31 06:22:19;;;;;;;6.37;4.53;;;14.40;99.90;;;;;;5109189;28;21030;-82
2023/05/31 06:24:47;;;;;;;4.90;4.13;;;14.30;99.90;;;;;;5114486;28;20447;-82
2023/05/31 06:27:14;;;;;;;4.40;3.70;;;14.20;99.90;;;;;;5112731;28;20966;-83
2023/05/31 06:29:41;;;;;;;6.33;4.43;;;14.20;99.90;;;;;;5108936;28;20439;-82
2023/05/31 06:32:08;;;;;;;7.27;4.57;;;14.20;99.90;;;;;;5105062;28;20974;-82
2023/05/31 06:34:35;;;;;;;5.53;4.40;;;14.30;99.90;;;;;;5113698;28;20522;-82
2023/05/31 06:37:04;;;;;;;8.40;4.87;;;14.40;99.90;;;;;;5112620;28;20444;-83
2023/05/31 06:39:31;;;;;;;6.53;4.87;;;14.40;99.90;;;;;;5108654;28;20526;-82
2023/05/31 06:41:59;;;;;;;7.43;4.33;;;14.30;99.90;;;;;;5106534;28;20834;-83
2023/05/31 06:44:26;;;;;;;7.10;4.57;;;14.30;99.90;;;;;;5110170;28;20441;-83
2023/05/31 06:46:54;;;;;;;5.60;3.93;;;14.40;99.90;;;;;;5109275;28;20438;-82
2023/05/31 06:49:21;;;;;;;4.67;3.93;;;14.50;99.90;;;;;;5114565;28;20504;-83
2023/05/31 06:51:48;;;;;;;5.17;4.60;;;14.60;99.90;;;;;;5112457;28;20572;-83
2023/05/31 06:54:16;;;;;;;7.30;4.43;;;14.70;99.90;;;;;;5113115;28;20474;-82
2023/05/31 06:56:43;;;;;;;5.47;4.63;;;14.80;99.90;;;;;;5113911;28;20488;-82
2023/05/31 06:59:10;;;;;;;8.70;4.97;;;14.80;99.90;;;;;;5112518;28;20793;-82
2023/05/31 07:01:37;;;;;;;5.77;5.10;;;14.80;99.90;;;;;;5114200;27;20494;-83
2023/05/31 07:04:04;;;;;;;6.00;4.67;;;14.90;99.90;;;;;;5114122;28;20526;-83
2023/05/31 07:06:31;;;;;;;5.53;4.40;;;15.00;99.90;;;;;;5112592;28;20469;-82
2023/05/31 07:08:58;;;;;;;5.50;3.50;;;15.00;99.90;;;;;;5115003;27;20437;-83
2023/05/31 07:11:26;;;;;;;5.27;4.33;;;15.10;99.90;;;;;;5113941;28;20575;-83
2023/05/31 07:13:54;;;;;;;6.30;4.80;;;15.10;99.90;;;;;;5111410;28;20986;-83
2023/05/31 07:16:21;;;;;;;5.90;4.90;;;15.10;99.90;;;;;;5108223;28;20438;-83
2023/05/31 07:18:48;;;;;;;6.07;5.03;;;15.10;99.90;;;;;;5116474;28;20792;-83
2023/05/31 07:21:14;;;;;;;7.20;4.60;;;15.20;99.90;;;;;;5113995;28;20489;-83
2023/05/31 07:23:41;;;;;;;5.90;5.07;;;15.10;99.90;;;;;;5108734;28;20477;-83
2023/05/31 07:26:08;;;;;;;5.63;3.83;;;15.20;99.90;;;;;;5116869;28;20446;-83
2023/05/31 07:28:37;;;;;;;4.73;4.27;;;15.40;99.90;;;;;;5116591;28;20475;-83
2023/05/31 07:31:04;;;;;;;6.57;4.93;;;15.60;99.90;;;;;;5115393;28;20498;-83
2023/05/31 07:33:31;;;;;;;6.60;4.20;;;15.80;99.90;;;;;;5115257;28;20848;-83
2023/05/31 07:36:00;;;;;;;5.73;4.47;;;15.90;99.90;;;;;;5103033;28;20493;-83
2023/05/31 07:38:27;;;;;;;4.13;3.43;;;15.90;99.90;;;;;;5093101;28;20448;-83
2023/05/31 07:40:54;;;;;;;5.23;4.03;;;16.00;99.90;;;;;;5094421;28;20497;-83
2023/05/31 07:43:21;;;;;;;5.20;3.93;;;16.10;99.90;;;;;;5101228;28;20482;-83
2023/05/31 07:45:50;;;;;;;5.80;4.77;;;16.20;99.90;;;;;;5107473;28;21003;-83
2023/05/31 07:48:18;;;;;;;6.97;4.80;;;16.30;99.90;;;;;;5105208;28;20442;-83
2023/05/31 07:50:45;;;;;;;6.37;4.10;;;16.40;99.90;;;;;;5113980;28;21010;-83
2023/05/31 07:53:11;;;;;;;8.10;5.27;;;16.40;99.90;;;;;;5110743;28;20572;-83
2023/05/31 07:55:38;;;;;;;6.80;4.73;;;16.40;99.90;;;;;;5106459;28;20493;-83
2023/05/31 07:58:06;;;;;;;5.93;5.20;;;16.50;99.90;;;;;;5113276;28;20503;-83
2023/05/31 08:00:33;;;;;;;7.43;5.27;;;16.60;99.90;;;;;;5113576;28;20455;-83
2023/05/31 08:03:01;;;;;;;6.57;4.63;;;16.70;99.90;;;;;;5112407;28;20889;-83
2023/05/31 08:05:28;;;;;;;8.03;5.33;;;16.80;99.90;;;;;;5097941;28;20946;-83
2023/05/31 08:07:55;;;;;;;7.30;4.60;;;16.90;99.90;;;;;;5103699;28;21088;-82
2023/05/31 08:10:22;;;;;;;5.70;4.03;;;16.90;99.90;;;;;;5113144;28;20594;-83
2023/05/31 08:12:49;;;;;;;5.47;3.70;;;16.90;99.90;;;;;;5112513;28;20524;-83
2023/05/31 08:15:16;;;;;;;4.87;3.80;;;17.00;99.90;;;;;;5112597;28;20453;-83
2023/05/31 08:17:43;;;;;;;5.27;4.17;;;17.10;99.90;;;;;;5113016;28;20441;-83
2023/05/31 08:20:13;;;;;;;6.77;4.87;;;17.30;99.90;;;;;;5111102;28;20511;-83
2023/05/31 08:22:42;;;;;;;4.87;3.70;;;17.50;99.90;;;;;;5112503;28;20481;-83
2023/05/31 08:25:12;;;;;;;5.43;3.90;;;17.70;99.90;;;;;;5112720;27;20488;-84
2023/05/31 08:27:40;;;;;;;4.53;3.67;;;17.90;99.90;;;;;;5112711;28;20444;-83
2023/05/31 08:30:10;;;;;;;6.43;5.00;;;18.00;99.90;;;;;;5112845;28;22149;-83
2023/05/31 08:32:37;;;;;;;5.70;4.10;;;18.10;99.90;;;;;;5111699;28;20477;-83
2023/05/31 08:35:06;;;;;;;6.00;4.60;;;18.20;99.90;;;;;;5112829;28;20930;-83
2023/05/31 08:37:34;;;;;;;8.63;5.17;;;18.30;99.90;;;;;;5112243;28;20449;-83
2023/05/31 08:40:01;;;;;;;7.00;4.17;;;18.40;99.90;;;;;;5111886;28;20431;-83
2023/05/31 08:42:37;;;;;;;4.77;3.80;;;18.50;99.90;;;;;;5111719;28;21028;-84
2023/05/31 08:45:05;;;;;;;5.73;4.30;;;18.60;99.90;;;;;;5112445;28;20477;-83
2023/05/31 08:47:39;;;;;;;6.57;5.00;;;18.70;99.90;;;;;;5111969;28;20861;-83
2023/05/31 08:50:07;;;;;;;7.83;4.87;;;18.80;99.90;;;;;;5111820;28;20471;-83
2023/05/31 08:52:36;;;;;;;5.57;4.43;;;18.70;99.90;;;;;;5110075;28;20515;-83
2023/05/31 08:55:04;;;;;;;5.73;4.23;;;18.80;99.90;;;;;;5111806;28;20880;-83
2023/05/31 08:57:33;;;;;;;5.80;3.97;;;18.60;99.90;;;;;;5112537;28;20800;-83
2023/05/31 09:00:08;;;;;;;5.43;4.40;;;18.60;99.90;;;;;;5112171;28;20461;-83
2023/05/31 09:02:35;;;;;;;5.90;4.20;;;18.70;99.90;;;;;;5112213;28;20491;-83
2023/05/31 09:05:04;;;;;;;5.37;4.50;;;18.70;99.90;;;;;;5110543;28;20480;-83
2023/05/31 09:07:32;;;;;;;8.70;5.00;;;18.80;99.90;;;;;;5115464;28;20501;-85
2023/05/31 09:10:02;;;;;;;5.63;5.03;;;18.80;99.90;;;;;;5107236;28;20872;-83
2023/05/31 09:12:30;;;;;;;5.90;5.10;;;18.70;99.90;;;;;;5107671;28;20494;-84
2023/05/31 09:14:57;;;;;;;5.63;4.60;;;18.70;99.90;;;;;;5103748;28;20536;-83
2023/05/31 09:17:24;;;;;;;6.40;4.77;;;18.80;99.90;;;;;;5094334;28;20529;-83
2023/05/31 09:19:53;;;;;;;5.50;3.87;;;18.90;99.90;;;;;;5087576;28;20465;-83
2023/05/31 09:22:20;;;;;;;9.23;4.23;;;18.80;99.90;;;;;;5090735;28;20466;-83
2023/05/31 09:24:55;;;;;;;7.63;5.00;;;18.90;99.90;;;;;;5091579;28;20494;-83
2023/05/31 09:27:23;;;;;;;8.13;5.27;;;19.00;99.90;;;;;;5098860;28;20529;-83
2023/05/31 09:29:53;;;;;;;8.27;4.67;;;19.00;99.90;;;;;;5105322;28;20468;-83
2023/05/31 09:32:21;;;;;;;10.03;4.73;;;19.10;99.90;;;;;;5110849;28;20593;-83
2023/05/31 09:34:48;;;;;;;8.37;4.10;;;19.10;99.90;;;;;;5112009;28;20462;-83
2023/05/31 09:37:25;;;;;;;6.90;4.97;;;19.30;99.90;;;;;;5111336;28;20524;-83
2023/05/31 09:39:56;;;;;;;6.60;4.40;;;19.40;99.90;;;;;;5111445;28;20597;-83
2023/05/31 09:42:26;;;;;;;4.63;4.00;;;19.60;99.90;;;;;;5104182;28;20449;-84
2023/05/31 09:44:53;;;;;;;6.70;5.13;;;19.60;99.90;;;;;;5102961;28;20449;-84
2023/05/31 09:47:25;;;;;;;9.03;5.13;;;19.70;99.90;;;;;;5114046;28;20866;-83
2023/05/31 09:49:54;;;;;;;7.27;4.37;;;19.80;99.90;;;;;;5114602;28;20939;-83
2023/05/31 09:52:27;;;;;;;9.47;4.83;;;19.90;99.90;;;;;;5112854;28;20546;-83
2023/05/31 09:54:56;;;;;;;9.40;5.00;;;19.90;99.90;;;;;;5114220;28;20442;-84
2023/05/31 09:57:40;;;;;;;9.23;4.53;;;20.10;99.90;;;;;;5113922;28;20438;-84
2023/05/31 10:00:14;;;;;;;7.00;4.90;;;20.30;99.90;;;;;;5115390;28;20483;-83
2023/05/31 10:02:42;;;;;;;5.93;4.77;;;20.60;99.90;;;;;;5114707;28;20954;-83
2023/05/31 10:05:10;;;;;;;6.50;4.13;;;20.60;99.90;;;;;;5113432;28;21049;-83
2023/05/31 10:07:39;;;;;;;9.83;4.40;;;20.70;99.90;;;;;;5115366;28;20466;-83
2023/05/31 10:10:07;;;;;;;6.70;4.07;;;20.70;99.90;;;;;;5115205;28;20940;-83
2023/05/31 10:12:43;;;;;;;5.40;4.00;;;20.80;99.90;;;;;;5108840;28;20502;-81
2023/05/31 10:15:15;;;;;;;7.90;4.63;;;20.80;99.90;;;;;;5109764;28;20454;-81
2023/05/31 10:17:47;;;;;;;7.80;4.93;;;20.90;99.90;;;;;;5106451;28;20492;-81
2023/05/31 10:20:17;;;;;;;8.77;4.20;;;20.90;99.90;;;;;;5113264;28;20455;-81
2023/05/31 10:22:46;;;;;;;5.73;4.00;;;20.90;99.90;;;;;;5102391;28;20433;-81
2023/05/31 10:25:22;;;;;;;5.00;4.47;;;21.00;99.90;;;;;;5094523;28;20551;-81
2023/05/31 10:27:55;;;;;;;5.70;3.73;;;21.00;99.90;;;;;;5095300;28;20443;-81
2023/05/31 10:30:27;;;;;;;5.43;3.67;;;21.10;99.90;;;;;;5094308;28;20474;-82
2023/05/31 10:33:00;;;;;;;7.93;3.87;;;21.10;99.90;;;;;;5094253;28;20562;-83
2023/05/31 10:35:28;;;;;;;6.80;4.40;;;21.10;99.90;;;;;;5113302;28;20446;-83
2023/05/31 10:37:55;;;;;;;6.93;4.60;;;21.10;99.90;;;;;;5111737;28;20543;-82
2023/05/31 10:40:29;;;;;;;5.23;4.27;;;21.20;99.90;;;;;;5114468;28;20548;-82
2023/05/31 10:43:04;;;;;;;5.97;4.43;;;21.20;99.90;;;;;;5113935;28;20488;-83
2023/05/31 10:45:38;;;;;;;7.13;4.27;;;21.20;99.90;;;;;;5114938;28;20438;-83
2023/05/31 10:48:16;;;;;;;6.30;4.13;;;21.30;99.90;;;;;;5114975;28;20475;-83
2023/05/31 10:50:56;;;;;;;4.40;3.40;;;21.40;99.90;;;;;;5119773;28;20459;-82
2023/05/31 10:53:24;;;;;;;5.93;4.30;;;21.50;99.90;;;;;;5108731;28;20871;-83
2023/05/31 10:55:51;;;;;;;5.23;4.30;;;21.40;99.90;;;;;;5113150;28;20468;-85
2023/05/31 10:58:29;;;;;;;5.43;3.70;;;21.50;99.90;;;;;;5097662;28;20514;-85
2023/05/31 11:00:57;;;;;;;8.60;3.70;;;21.50;99.90;;;;;;5096965;28;20525;-85
2023/05/31 11:03:27;;;;;;;6.97;4.37;;;21.50;99.90;;;;;;5098073;28;20475;-85
2023/05/31 11:05:59;;;;;;;5.60;4.30;;;21.60;99.90;;;;;;5094744;28;20448;-85
2023/05/31 11:08:26;;;;;;;7.40;4.63;;;21.70;99.90;;;;;;5104927;28;20450;-85
2023/05/31 11:10:53;;;;;;;5.80;4.17;;;21.70;99.90;;;;;;5116219;28;20519;-85
2023/05/31 11:13:20;;;;;;;5.53;3.63;;;21.70;99.90;;;;;;5112245;28;20508;-85
2023/05/31 11:15:48;;;;;;;5.70;4.00;;;21.80;99.90;;;;;;5104645;28;20444;-85
2023/05/31 11:18:17;;;;;;;6.03;4.20;;;21.90;99.90;;;;;;5106942;28;20878;-85
2023/05/31 11:20:44;;;;;;;8.80;4.13;;;22.00;99.90;;;;;;5106195;28;20835;-85
2023/05/31 11:23:30;;;;;;;7.17;4.40;;;22.10;99.90;;;;;;5112344;28;20824;-85
2023/05/31 11:26:11;;;;;;;4.90;3.57;;;22.10;99.60;;;;;;5104495;28;20455;-85
2023/05/31 11:28:58;;;;;;;6.50;4.67;;;22.00;99.80;;;;;;5094599;28;20513;-85
2023/05/31 11:31:59;;;;;;;5.40;4.23;;;22.10;99.90;;;;;;5094356;28;21008;-85
2023/05/31 11:34:27;;;;;;;4.60;4.03;;;22.00;99.90;;;;;;5101287;28;20791;-85
2023/05/31 11:36:56;;;;;;;4.80;3.70;;;22.00;99.90;;;;;;5107129;28;20518;-85
2023/05/31 11:39:24;;;;;;;8.55;4.53;;;22.10;99.60;;;;;;5113388;28;20522;-85
2023/05/31 11:41:51;;;;;;;7.20;4.03;;;22.40;99.90;;;;;;5114894;28;20228;-85
2023/05/31 11:44:29;;;;;;;5.40;3.70;;;22.40;99.00;;;;;;5114419;28;20538;-85
2023/05/31 11:47:02;;;;;;;6.83;4.17;;;22.50;99.90;;;;;;5113891;28;20449;-83
2023/05/31 11:49:30;;;;;;;6.27;3.77;;;22.50;99.90;;;;;;5113387;28;20435;-85
2023/05/31 11:51:57;;;;;;;7.07;4.50;;;22.50;99.90;;;;;;5113762;28;20493;-85
2023/05/31 11:54:29;;;;;;;5.97;4.40;;;22.60;99.90;;;;;;5112984;28;20479;-85
2023/05/31 11:56:59;;;;;;;6.53;3.90;;;22.50;99.90;;;;;;5113794;28;20463;-85
2023/05/31 11:59:27;;;;;;;5.60;3.67;;;22.40;99.90;;;;;;5114086;28;20830;-85
2023/05/31 12:02:00;;;;;;;5.60;3.87;;;22.30;99.90;;;;;;5113167;28;20875;-85
2023/05/31 12:04:36;;;;;;;8.20;3.67;;;22.40;99.90;;;;;;5111580;28;20915;-85
2023/05/31 12:07:04;;;;;;;6.17;4.00;;;22.30;99.90;;;;;;5112259;28;20498;-85
2023/05/31 12:09:31;;;;;;;5.37;4.03;;;22.30;99.90;;;;;;5113196;28;20436;-85
2023/05/31 12:11:58;;;;;;;5.30;3.93;;;22.30;99.90;;;;;;5113393;28;20813;-85
2023/05/31 12:14:26;;;;;;;7.00;4.00;;;22.30;99.90;;;;;;5112161;28;20477;-86
2023/05/31 12:16:53;;;;;;;6.27;4.00;;;22.30;99.90;;;;;;5101769;28;20501;-85
2023/05/31 12:19:23;;;;;;;4.87;4.37;;;22.30;99.10;;;;;;5109407;28;20617;-88
2023/05/31 12:21:50;;;;;;;5.57;3.60;;;22.20;99.90;;;;;;5099509;28;20448;-85
2023/05/31 12:24:18;;;;;;;5.00;4.13;;;22.10;99.90;;;;;;5106838;28;20861;-86
2023/05/31 12:26:48;;;;;;;9.70;4.30;;;22.10;99.40;;;;;;5112958;28;20454;-85
2023/05/31 12:29:15;;;;;;;5.00;3.77;;;22.30;99.90;;;;;;5113242;28;20509;-85
2023/05/31 12:31:42;;;;;;;6.27;4.43;;;22.20;99.80;;;;;;5112915;28;20503;-85
2023/05/31 12:34:11;;;;;;;5.60;4.17;;;22.10;99.90;;;;;;5111865;28;20474;-85
2023/05/31 12:36:47;;;;;;;6.33;4.47;;;22.20;99.90;;;;;;5104399;28;20447;-85
2023/05/31 12:39:16;;;;;;;4.73;3.43;;;22.30;99.90;;;;;;5107760;28;20439;-85
2023/05/31 12:41:44;;;;;;;4.50;3.83;;;22.40;98.30;;;;;;5103044;28;20462;-85
2023/05/31 12:44:13;;;;;;;6.43;4.20;;;22.40;99.90;;;;;;5105429;28;20951;-86
2023/05/31 12:46:40;;;;;;;5.20;3.57;;;22.30;99.10;;;;;;5100768;28;20820;-86
2023/05/31 12:49:21;;;;;;;7.30;3.53;;;22.30;99.90;;;;;;5124755;28;20451;-86
2023/05/31 12:51:50;;;;;;;6.60;4.07;;;22.30;98.60;;;;;;5112756;28;20498;-85
2023/05/31 12:54:20;;;;;;;6.43;3.43;;;22.40;99.60;;;;;;5098630;28;20987;-86
2023/05/31 12:56:46;;;;;;;6.27;4.30;;;22.30;99.10;;;;;;5090366;28;20440;-86